sensor_id;sensor_type;location;lat;lon;timestamp;P1;durP1;ratioP1;P2;durP2;ratioP2
19842;SDS011;10082;51.038;6.992;2023-06-22T01:09:47;4.75;;;4.28;;
19842;SDS011;10082;51.038;6.992;2023-06-22T01:12:21;5.00;;;4.50;;
19842;SDS011;10082;51.038;6.992;2023-06-22T01:14:53;4.80;;;4.30;;
19842;SDS011;10082;51.038;6.992;2023-06-22T01:17:25;4.70;;;4.30;;
19842;SDS011;10082;51.038;6.992;2023-06-22T01:19:57;5.60;;;4.40;;
19842;SDS011;10082;51.038;6.992;2023-06-22T01:22:30;4.75;;;4.35;;
19842;SDS011;10082;51.038;6.992;2023-06-22T01:28:49;4.40;;;4.00;;
19842;SDS011;10082;51.038;6.992;2023-06-22T01:31:20;4.82;;;3.75;;
19842;SDS011;10082;51.038;6.992;2023-06-22T01:33:53;4.18;;;3.78;;
19842;SDS011;10082;51.038;6.992;2023-06-22T01:36:23;3.92;;;3.63;;
19842;SDS011;10082;51.038;6.992;2023-06-22T01:38:54;4.20;;;3.80;;
19842;SDS011;10082;51.038;6.992;2023-06-22T01:41:26;3.97;;;3.67;;
19842;SDS011;10082;51.038;6.992;2023-06-22T01:43:58;4.28;;;3.97;;
19842;SDS011;10082;51.038;6.992;2023-06-22T01:46:27;4.43;;;4.03;;
19842;SDS011;10082;51.038;6.992;2023-06-22T01:48:56;4.28;;;3.88;;
19842;SDS011;10082;51.038;6.992;2023-06-22T01:51:29;4.07;;;3.75;;
19842;SDS011;10082;51.038;6.992;2023-06-22T01:54:01;4.30;;;4.00;;
19842;SDS011;10082;51.038;6.992;2023-06-22T01:56:29;4.13;;;3.80;;
19842;SDS011;10082;51.038;6.992;2023-06-22T01:59:02;4.32;;;3.92;;
19842;SDS011;10082;51.038;6.992;2023-06-22T02:01:39;4.95;;;3.83;;
19842;SDS011;10082;51.038;6.992;2023-06-22T02:04:12;5.28;;;4.25;;
19842;SDS011;10082;51.038;6.992;2023-06-22T02:06:46;5.00;;;4.35;;
19842;SDS011;10082;51.038;6.992;2023-06-22T02:09:20;4.63;;;3.90;;
19842;SDS011;10082;51.038;6.992;2023-06-22T02:11:53;4.75;;;4.20;;
19842;SDS011;10082;51.038;6.992;2023-06-22T02:14:26;3.63;;;3.33;;
19842;SDS011;10082;51.038;6.992;2023-06-22T02:16:55;7.32;;;4.50;;
19842;SDS011;10082;51.038;6.992;2023-06-22T02:19:24;4.20;;;3.80;;
19842;SDS011;10082;51.038;6.992;2023-06-22T02:21:52;4.07;;;3.78;;
19842;SDS011;10082;51.038;6.992;2023-06-22T02:24:20;4.68;;;4.28;;
19842;SDS011;10082;51.038;6.992;2023-06-22T02:26:49;4.90;;;4.47;;
19842;SDS011;10082;51.038;6.992;2023-06-22T02:29:16;6.07;;;4.00;;
19842;SDS011;10082;51.038;6.992;2023-06-22T02:31:46;4.78;;;4.05;;
19842;SDS011;10082;51.038;6.992;2023-06-22T02:34:14;4.45;;;4.03;;
19842;SDS011;10082;51.038;6.992;2023-06-22T02:36:44;4.40;;;3.90;;
19842;SDS011;10082;51.038;6.992;2023-06-22T02:39:16;4.60;;;4.22;;
19842;SDS011;10082;51.038;6.992;2023-06-22T02:41:46;5.15;;;4.65;;
19842;SDS011;10082;51.038;6.992;2023-06-22T02:44:14;4.97;;;4.20;;
19842;SDS011;10082;51.038;6.992;2023-06-22T02:46:49;4.20;;;3.90;;
19842;SDS011;10082;51.038;6.992;2023-06-22T02:49:17;5.07;;;4.63;;
19842;SDS011;10082;51.038;6.992;2023-06-22T02:51:45;4.43;;;4.03;;
19842;SDS011;10082;51.038;6.992;2023-06-22T02:54:16;4.68;;;4.22;;
19842;SDS011;10082;51.038;6.992;2023-06-22T02:56:46;4.70;;;4.30;;
19842;SDS011;10082;51.038;6.992;2023-06-22T02:59:17;4.10;;;3.80;;
19842;SDS011;10082;51.038;6.992;2023-06-22T03:01:52;4.50;;;4.20;;
19842;SDS011;10082;51.038;6.992;2023-06-22T03:04:27;3.95;;;3.65;;
19842;SDS011;10082;51.038;6.992;2023-06-22T03:06:56;4.90;;;4.50;;
19842;SDS011;10082;51.038;6.992;2023-06-22T03:09:30;5.03;;;3.83;;
19842;SDS011;10082;51.038;6.992;2023-06-22T03:11:58;4.05;;;3.67;;
19842;SDS011;10082;51.038;6.992;2023-06-22T03:14:32;3.90;;;3.53;;
19842;SDS011;10082;51.038;6.992;2023-06-22T03:17:00;4.20;;;3.75;;
19842;SDS011;10082;51.038;6.992;2023-06-22T03:19:28;4.65;;;4.07;;
19842;SDS011;10082;51.038;6.992;2023-06-22T03:21:56;5.18;;;4.22;;
19842;SDS011;10082;51.038;6.992;2023-06-22T03:24:24;3.92;;;3.63;;
19842;SDS011;10082;51.038;6.992;2023-06-22T03:26:53;4.00;;;3.70;;
19842;SDS011;10082;51.038;6.992;2023-06-22T03:29:21;4.35;;;3.97;;
19842;SDS011;10082;51.038;6.992;2023-06-22T03:34:54;4.15;;;3.78;;
19842;SDS011;10082;51.038;6.992;2023-06-22T03:37:24;4.22;;;3.83;;
19842;SDS011;10082;51.038;6.992;2023-06-22T03:39:51;4.10;;;3.70;;
19842;SDS011;10082;51.038;6.992;2023-06-22T03:42:19;4.38;;;3.75;;
19842;SDS011;10082;51.038;6.992;2023-06-22T03:44:46;4.25;;;3.70;;
19842;SDS011;10082;51.038;6.992;2023-06-22T03:47:13;4.78;;;3.78;;
19842;SDS011;10082;51.038;6.992;2023-06-22T03:49:40;4.60;;;4.20;;
19842;SDS011;10082;51.038;6.992;2023-06-22T03:52:09;4.30;;;3.90;;
19842;SDS011;10082;51.038;6.992;2023-06-22T03:54:43;3.95;;;3.35;;
19842;SDS011;10082;51.038;6.992;2023-06-22T03:57:11;3.97;;;3.67;;
19842;SDS011;10082;51.038;6.992;2023-06-22T03:59:38;4.03;;;3.60;;
19842;SDS011;10082;51.038;6.992;2023-06-22T04:02:06;3.90;;;3.60;;
19842;SDS011;10082;51.038;6.992;2023-06-22T04:04:33;3.97;;;3.63;;
19842;SDS011;10082;51.038;6.992;2023-06-22T04:07:00;4.18;;;3.72;;
19842;SDS011;10082;51.038;6.992;2023-06-22T04:09:30;3.90;;;3.60;;
19842;SDS011;10082;51.038;6.992;2023-06-22T04:11:57;4.28;;;3.90;;
19842;SDS011;10082;51.038;6.992;2023-06-22T04:14:25;3.70;;;3.40;;
19842;SDS011;10082;51.038;6.992;2023-06-22T04:16:53;4.40;;;4.00;;
19842;SDS011;10082;51.038;6.992;2023-06-22T04:19:20;4.15;;;3.75;;
19842;SDS011;10082;51.038;6.992;2023-06-22T04:21:48;4.45;;;4.10;;
19842;SDS011;10082;51.038;6.992;2023-06-22T04:24:15;6.00;;;4.13;;
19842;SDS011;10082;51.038;6.992;2023-06-22T04:26:44;4.50;;;4.10;;
19842;SDS011;10082;51.038;6.992;2023-06-22T04:29:12;3.88;;;3.58;;
19842;SDS011;10082;51.038;6.992;2023-06-22T04:31:43;4.07;;;3.75;;
19842;SDS011;10082;51.038;6.992;2023-06-22T04:34:13;4.25;;;3.85;;
19842;SDS011;10082;51.038;6.992;2023-06-22T04:36:41;4.18;;;3.67;;
19842;SDS011;10082;51.038;6.992;2023-06-22T04:39:16;4.85;;;4.07;;
19842;SDS011;10082;51.038;6.992;2023-06-22T04:41:45;4.57;;;3.75;;
19842;SDS011;10082;51.038;6.992;2023-06-22T04:44:13;5.95;;;4.78;;
19842;SDS011;10082;51.038;6.992;2023-06-22T04:46:49;4.63;;;4.25;;
19842;SDS011;10082;51.038;6.992;2023-06-22T04:49:19;5.40;;;3.97;;
19842;SDS011;10082;51.038;6.992;2023-06-22T04:51:47;4.20;;;3.88;;
19842;SDS011;10082;51.038;6.992;2023-06-22T04:54:16;5.03;;;4.53;;
19842;SDS011;10082;51.038;6.992;2023-06-22T04:56:45;4.78;;;4.38;;
19842;SDS011;10082;51.038;6.992;2023-06-22T04:59:13;5.32;;;4.93;;
19842;SDS011;10082;51.038;6.992;2023-06-22T05:01:43;6.10;;;5.50;;
19842;SDS011;10082;51.038;6.992;2023-06-22T05:04:10;5.57;;;5.13;;
19842;SDS011;10082;51.038;6.992;2023-06-22T05:06:38;6.68;;;4.88;;
19842;SDS011;10082;51.038;6.992;2023-06-22T05:09:05;5.75;;;5.22;;
19842;SDS011;10082;51.038;6.992;2023-06-22T05:11:32;6.13;;;5.10;;
19842;SDS011;10082;51.038;6.992;2023-06-22T05:14:00;6.03;;;5.53;;
19842;SDS011;10082;51.038;6.992;2023-06-22T05:16:28;5.93;;;5.40;;
19842;SDS011;10082;51.038;6.992;2023-06-22T05:18:55;5.63;;;5.13;;
19842;SDS011;10082;51.038;6.992;2023-06-22T05:23:58;7.20;;;5.60;;
19842;SDS011;10082;51.038;6.992;2023-06-22T05:26:28;6.40;;;5.20;;
19842;SDS011;10082;51.038;6.992;2023-06-22T05:28:56;6.00;;;4.35;;
19842;SDS011;10082;51.038;6.992;2023-06-22T05:31:25;5.85;;;4.45;;
19842;SDS011;10082;51.038;6.992;2023-06-22T05:33:55;4.72;;;4.32;;
19842;SDS011;10082;51.038;6.992;2023-06-22T05:36:22;6.75;;;5.18;;
19842;SDS011;10082;51.038;6.992;2023-06-22T05:38:51;6.03;;;5.07;;
19842;SDS011;10082;51.038;6.992;2023-06-22T05:41:19;4.78;;;4.35;;
19842;SDS011;10082;51.038;6.992;2023-06-22T05:43:48;4.95;;;4.45;;
19842;SDS011;10082;51.038;6.992;2023-06-22T05:46:18;5.80;;;5.30;;
19842;SDS011;10082;51.038;6.992;2023-06-22T05:48:56;5.40;;;4.90;;
19842;SDS011;10082;51.038;6.992;2023-06-22T05:51:34;5.28;;;4.70;;
19842;SDS011;10082;51.038;6.992;2023-06-22T05:54:06;7.25;;;6.75;;
19842;SDS011;10082;51.038;6.992;2023-06-22T05:56:38;7.85;;;7.22;;
19842;SDS011;10082;51.038;6.992;2023-06-22T05:59:06;9.32;;;8.27;;
19842;SDS011;10082;51.038;6.992;2023-06-22T06:01:34;8.45;;;7.75;;
19842;SDS011;10082;51.038;6.992;2023-06-22T06:04:10;9.10;;;8.32;;
19842;SDS011;10082;51.038;6.992;2023-06-22T06:06:41;10.07;;;9.05;;
19842;SDS011;10082;51.038;6.992;2023-06-22T06:09:11;8.52;;;7.82;;
19842;SDS011;10082;51.038;6.992;2023-06-22T06:11:38;9.07;;;8.38;;
19842;SDS011;10082;51.038;6.992;2023-06-22T06:14:06;9.10;;;8.30;;
19842;SDS011;10082;51.038;6.992;2023-06-22T06:16:33;9.63;;;8.82;;
19842;SDS011;10082;51.038;6.992;2023-06-22T06:19:04;9.10;;;8.30;;
19842;SDS011;10082;51.038;6.992;2023-06-22T06:21:33;8.52;;;7.82;;
19842;SDS011;10082;51.038;6.992;2023-06-22T06:24:02;8.65;;;7.88;;
19842;SDS011;10082;51.038;6.992;2023-06-22T06:26:30;8.88;;;8.18;;
19842;SDS011;10082;51.038;6.992;2023-06-22T06:29:10;8.23;;;7.60;;
19842;SDS011;10082;51.038;6.992;2023-06-22T06:31:37;8.65;;;8.02;;
19842;SDS011;10082;51.038;6.992;2023-06-22T06:34:04;9.73;;;9.02;;
19842;SDS011;10082;51.038;6.992;2023-06-22T06:36:33;9.57;;;8.77;;
19842;SDS011;10082;51.038;6.992;2023-06-22T06:39:00;9.00;;;8.20;;
19842;SDS011;10082;51.038;6.992;2023-06-22T06:41:28;9.40;;;8.55;;
19842;SDS011;10082;51.038;6.992;2023-06-22T06:43:58;9.70;;;8.90;;
19842;SDS011;10082;51.038;6.992;2023-06-22T06:46:28;9.00;;;8.30;;
19842;SDS011;10082;51.038;6.992;2023-06-22T06:48:56;9.77;;;8.95;;
19842;SDS011;10082;51.038;6.992;2023-06-22T06:51:24;9.13;;;8.30;;
19842;SDS011;10082;51.038;6.992;2023-06-22T06:53:54;8.43;;;7.82;;
19842;SDS011;10082;51.038;6.992;2023-06-22T06:56:22;9.55;;;8.75;;
19842;SDS011;10082;51.038;6.992;2023-06-22T06:58:50;9.15;;;8.55;;
19842;SDS011;10082;51.038;6.992;2023-06-22T07:01:18;9.13;;;8.43;;
19842;SDS011;10082;51.038;6.992;2023-06-22T07:03:51;9.18;;;8.48;;
19842;SDS011;10082;51.038;6.992;2023-06-22T07:06:25;8.68;;;8.07;;
19842;SDS011;10082;51.038;6.992;2023-06-22T07:08:59;8.45;;;7.85;;
19842;SDS011;10082;51.038;6.992;2023-06-22T07:11:27;8.15;;;7.45;;
19842;SDS011;10082;51.038;6.992;2023-06-22T07:13:54;8.27;;;7.68;;
19842;SDS011;10082;51.038;6.992;2023-06-22T07:16:22;8.20;;;7.60;;
19842;SDS011;10082;51.038;6.992;2023-06-22T07:18:51;8.38;;;7.68;;
19842;SDS011;10082;51.038;6.992;2023-06-22T07:21:18;7.80;;;7.20;;
19842;SDS011;10082;51.038;6.992;2023-06-22T07:23:49;7.60;;;7.00;;
19842;SDS011;10082;51.038;6.992;2023-06-22T07:26:19;8.68;;;7.82;;
19842;SDS011;10082;51.038;6.992;2023-06-22T07:28:47;8.15;;;7.45;;
19842;SDS011;10082;51.038;6.992;2023-06-22T07:31:16;8.23;;;7.50;;
19842;SDS011;10082;51.038;6.992;2023-06-22T07:33:45;8.07;;;7.47;;
19842;SDS011;10082;51.038;6.992;2023-06-22T07:36:16;8.80;;;8.00;;
19842;SDS011;10082;51.038;6.992;2023-06-22T07:38:49;8.93;;;7.93;;
19842;SDS011;10082;51.038;6.992;2023-06-22T07:41:23;10.80;;;9.77;;
19842;SDS011;10082;51.038;6.992;2023-06-22T07:43:56;8.88;;;8.20;;
19842;SDS011;10082;51.038;6.992;2023-06-22T07:46:27;8.68;;;8.07;;
19842;SDS011;10082;51.038;6.992;2023-06-22T07:48:58;7.90;;;7.28;;
19842;SDS011;10082;51.038;6.992;2023-06-22T07:51:34;8.30;;;7.65;;
19842;SDS011;10082;51.038;6.992;2023-06-22T07:54:03;8.23;;;7.53;;
19842;SDS011;10082;51.038;6.992;2023-06-22T07:56:33;7.85;;;7.25;;
19842;SDS011;10082;51.038;6.992;2023-06-22T07:59:03;7.85;;;7.35;;
19842;SDS011;10082;51.038;6.992;2023-06-22T08:01:34;7.78;;;7.18;;
19842;SDS011;10082;51.038;6.992;2023-06-22T08:04:02;7.70;;;7.10;;
19842;SDS011;10082;51.038;6.992;2023-06-22T08:06:31;7.75;;;7.05;;
19842;SDS011;10082;51.038;6.992;2023-06-22T08:09:02;7.40;;;6.90;;
19842;SDS011;10082;51.038;6.992;2023-06-22T08:11:30;7.45;;;6.85;;
19842;SDS011;10082;51.038;6.992;2023-06-22T08:13:59;7.78;;;7.25;;
19842;SDS011;10082;51.038;6.992;2023-06-22T08:16:27;7.40;;;6.70;;
19842;SDS011;10082;51.038;6.992;2023-06-22T08:19:01;7.45;;;6.78;;
19842;SDS011;10082;51.038;6.992;2023-06-22T08:21:31;7.72;;;7.13;;
19842;SDS011;10082;51.038;6.992;2023-06-22T08:23:58;7.53;;;6.93;;
19842;SDS011;10082;51.038;6.992;2023-06-22T08:26:26;7.38;;;6.88;;
19842;SDS011;10082;51.038;6.992;2023-06-22T08:28:54;7.32;;;6.80;;
19842;SDS011;10082;51.038;6.992;2023-06-22T08:31:23;6.93;;;6.43;;
19842;SDS011;10082;51.038;6.992;2023-06-22T08:33:51;6.95;;;6.20;;
19842;SDS011;10082;51.038;6.992;2023-06-22T08:36:21;7.45;;;6.80;;
19842;SDS011;10082;51.038;6.992;2023-06-22T08:38:49;7.00;;;6.50;;
19842;SDS011;10082;51.038;6.992;2023-06-22T08:41:16;7.60;;;7.07;;
19842;SDS011;10082;51.038;6.992;2023-06-22T08:43:43;7.10;;;6.50;;
19842;SDS011;10082;51.038;6.992;2023-06-22T08:46:12;8.25;;;7.55;;
19842;SDS011;10082;51.038;6.992;2023-06-22T08:48:41;7.57;;;7.07;;
19842;SDS011;10082;51.038;6.992;2023-06-22T08:51:08;7.93;;;7.32;;
19842;SDS011;10082;51.038;6.992;2023-06-22T08:53:36;8.93;;;8.23;;
19842;SDS011;10082;51.038;6.992;2023-06-22T08:56:03;8.68;;;8.07;;
19842;SDS011;10082;51.038;6.992;2023-06-22T08:58:31;9.18;;;8.38;;
19842;SDS011;10082;51.038;6.992;2023-06-22T09:00:59;9.25;;;8.57;;
19842;SDS011;10082;51.038;6.992;2023-06-22T09:03:30;8.75;;;8.15;;
19842;SDS011;10082;51.038;6.992;2023-06-22T09:06:00;9.10;;;8.30;;
19842;SDS011;10082;51.038;6.992;2023-06-22T09:08:27;8.80;;;8.10;;
19842;SDS011;10082;51.038;6.992;2023-06-22T09:10:55;9.02;;;8.32;;
19842;SDS011;10082;51.038;6.992;2023-06-22T09:13:23;8.93;;;8.32;;
19842;SDS011;10082;51.038;6.992;2023-06-22T09:15:54;8.65;;;8.05;;
19842;SDS011;10082;51.038;6.992;2023-06-22T09:18:22;8.77;;;8.18;;
19842;SDS011;10082;51.038;6.992;2023-06-22T09:20:53;8.85;;;8.18;;
19842;SDS011;10082;51.038;6.992;2023-06-22T09:23:26;8.07;;;7.47;;
19842;SDS011;10082;51.038;6.992;2023-06-22T09:25:54;8.80;;;8.10;;
19842;SDS011;10082;51.038;6.992;2023-06-22T09:28:21;8.02;;;7.43;;
19842;SDS011;10082;51.038;6.992;2023-06-22T09:30:49;7.70;;;7.13;;
19842;SDS011;10082;51.038;6.992;2023-06-22T09:33:16;8.02;;;7.43;;
19842;SDS011;10082;51.038;6.992;2023-06-22T09:35:45;8.23;;;7.53;;
19842;SDS011;10082;51.038;6.992;2023-06-22T09:38:18;7.63;;;7.03;;
19842;SDS011;10082;51.038;6.992;2023-06-22T09:40:50;8.23;;;7.63;;
19842;SDS011;10082;51.038;6.992;2023-06-22T09:43:18;7.60;;;7.05;;
19842;SDS011;10082;51.038;6.992;2023-06-22T09:45:49;7.88;;;7.28;;
19842;SDS011;10082;51.038;6.992;2023-06-22T09:48:16;7.55;;;6.95;;
19842;SDS011;10082;51.038;6.992;2023-06-22T09:50:46;8.65;;;8.05;;
19842;SDS011;10082;51.038;6.992;2023-06-22T09:53:20;8.40;;;7.70;;
19842;SDS011;10082;51.038;6.992;2023-06-22T09:59:43;8.27;;;7.57;;
19842;SDS011;10082;51.038;6.992;2023-06-22T10:02:10;8.10;;;7.40;;
19842;SDS011;10082;51.038;6.992;2023-06-22T10:04:40;7.47;;;6.88;;
19842;SDS011;10082;51.038;6.992;2023-06-22T10:07:08;8.02;;;7.38;;
19842;SDS011;10082;51.038;6.992;2023-06-22T10:09:38;8.10;;;7.50;;
19842;SDS011;10082;51.038;6.992;2023-06-22T10:12:11;8.23;;;7.43;;
19842;SDS011;10082;51.038;6.992;2023-06-22T10:14:39;7.82;;;7.22;;
19842;SDS011;10082;51.038;6.992;2023-06-22T10:17:11;7.78;;;7.28;;
19842;SDS011;10082;51.038;6.992;2023-06-22T10:19:50;7.60;;;7.00;;
19842;SDS011;10082;51.038;6.992;2023-06-22T10:22:17;8.10;;;7.30;;
19842;SDS011;10082;51.038;6.992;2023-06-22T10:24:44;7.93;;;7.32;;
19842;SDS011;10082;51.038;6.992;2023-06-22T10:27:12;11.27;;;8.80;;
19842;SDS011;10082;51.038;6.992;2023-06-22T10:29:39;9.75;;;8.88;;
19842;SDS011;10082;51.038;6.992;2023-06-22T10:32:08;10.50;;;9.55;;
19842;SDS011;10082;51.038;6.992;2023-06-22T10:34:41;10.57;;;9.68;;
19842;SDS011;10082;51.038;6.992;2023-06-22T10:37:08;11.20;;;10.15;;
19842;SDS011;10082;51.038;6.992;2023-06-22T10:39:36;10.57;;;9.68;;
19842;SDS011;10082;51.038;6.992;2023-06-22T10:42:08;11.00;;;9.95;;
19842;SDS011;10082;51.038;6.992;2023-06-22T10:44:39;12.93;;;11.77;;
19842;SDS011;10082;51.038;6.992;2023-06-22T10:47:08;13.25;;;11.95;;
19842;SDS011;10082;51.038;6.992;2023-06-22T10:49:36;13.50;;;12.05;;
19842;SDS011;10082;51.038;6.992;2023-06-22T10:52:06;14.68;;;12.52;;
19842;SDS011;10082;51.038;6.992;2023-06-22T10:54:34;14.18;;;12.80;;
19842;SDS011;10082;51.038;6.992;2023-06-22T10:57:03;20.30;;;17.25;;
19842;SDS011;10082;51.038;6.992;2023-06-22T10:59:30;19.08;;;15.75;;
19842;SDS011;10082;51.038;6.992;2023-06-22T11:01:58;18.35;;;16.63;;
19842;SDS011;10082;51.038;6.992;2023-06-22T11:04:27;17.60;;;15.77;;
19842;SDS011;10082;51.038;6.992;2023-06-22T11:06:56;18.10;;;16.48;;
19842;SDS011;10082;51.038;6.992;2023-06-22T11:09:26;17.80;;;16.33;;
19842;SDS011;10082;51.038;6.992;2023-06-22T11:11:53;19.30;;;17.45;;
19842;SDS011;10082;51.038;6.992;2023-06-22T11:14:20;19.60;;;17.90;;
19842;SDS011;10082;51.038;6.992;2023-06-22T11:16:48;21.02;;;19.00;;
19842;SDS011;10082;51.038;6.992;2023-06-22T11:23:03;18.42;;;16.85;;
19842;SDS011;10082;51.038;6.992;2023-06-22T11:25:33;22.63;;;20.48;;
19842;SDS011;10082;51.038;6.992;2023-06-22T11:28:01;22.73;;;20.73;;
19842;SDS011;10082;51.038;6.992;2023-06-22T11:30:29;22.50;;;20.45;;
19842;SDS011;10082;51.038;6.992;2023-06-22T11:32:58;22.17;;;20.25;;
19842;SDS011;10082;51.038;6.992;2023-06-22T11:35:28;22.27;;;20.17;;
19842;SDS011;10082;51.038;6.992;2023-06-22T11:37:58;20.70;;;19.00;;
19842;SDS011;10082;51.038;6.992;2023-06-22T11:40:26;20.17;;;18.50;;
19842;SDS011;10082;51.038;6.992;2023-06-22T11:42:56;19.65;;;17.88;;
19842;SDS011;10082;51.038;6.992;2023-06-22T11:45:23;21.52;;;19.52;;
19842;SDS011;10082;51.038;6.992;2023-06-22T11:47:51;22.52;;;20.45;;
19842;SDS011;10082;51.038;6.992;2023-06-22T11:50:21;25.15;;;22.88;;
19842;SDS011;10082;51.038;6.992;2023-06-22T11:52:51;23.98;;;21.80;;
19842;SDS011;10082;51.038;6.992;2023-06-22T11:55:19;22.45;;;20.52;;
19842;SDS011;10082;51.038;6.992;2023-06-22T11:57:53;21.25;;;19.30;;
19842;SDS011;10082;51.038;6.992;2023-06-22T12:00:25;22.30;;;20.20;;
19842;SDS011;10082;51.038;6.992;2023-06-22T12:02:53;21.38;;;19.35;;
19842;SDS011;10082;51.038;6.992;2023-06-22T12:05:21;20.80;;;18.90;;
19842;SDS011;10082;51.038;6.992;2023-06-22T12:07:52;21.42;;;19.73;;
19842;SDS011;10082;51.038;6.992;2023-06-22T12:10:20;22.30;;;20.50;;
19842;SDS011;10082;51.038;6.992;2023-06-22T12:12:50;24.52;;;22.52;;
19842;SDS011;10082;51.038;6.992;2023-06-22T12:15:17;22.95;;;21.08;;
19842;SDS011;10082;51.038;6.992;2023-06-22T12:17:46;20.08;;;18.33;;
19842;SDS011;10082;51.038;6.992;2023-06-22T12:20:14;15.90;;;14.50;;
19842;SDS011;10082;51.038;6.992;2023-06-22T12:22:43;12.05;;;11.05;;
19842;SDS011;10082;51.038;6.992;2023-06-22T12:25:11;12.23;;;11.15;;
19842;SDS011;10082;51.038;6.992;2023-06-22T12:27:38;11.85;;;10.95;;
19842;SDS011;10082;51.038;6.992;2023-06-22T12:30:06;11.90;;;10.93;;
19842;SDS011;10082;51.038;6.992;2023-06-22T12:32:33;12.27;;;11.20;;
19842;SDS011;10082;51.038;6.992;2023-06-22T12:35:02;11.15;;;10.25;;
19842;SDS011;10082;51.038;6.992;2023-06-22T12:37:29;12.07;;;11.07;;
19842;SDS011;10082;51.038;6.992;2023-06-22T12:39:57;11.30;;;10.45;;
19842;SDS011;10082;51.038;6.992;2023-06-22T12:45:10;11.77;;;10.68;;
19842;SDS011;10082;51.038;6.992;2023-06-22T12:47:38;10.60;;;9.82;;
19842;SDS011;10082;51.038;6.992;2023-06-22T12:50:07;10.43;;;9.50;;
19842;SDS011;10082;51.038;6.992;2023-06-22T12:52:38;10.63;;;9.73;;
19842;SDS011;10082;51.038;6.992;2023-06-22T12:55:06;9.68;;;8.80;;
19842;SDS011;10082;51.038;6.992;2023-06-22T12:57:34;8.93;;;8.15;;
19842;SDS011;10082;51.038;6.992;2023-06-22T13:00:02;8.80;;;8.15;;
19842;SDS011;10082;51.038;6.992;2023-06-22T13:02:30;8.23;;;7.53;;
19842;SDS011;10082;51.038;6.992;2023-06-22T13:05:01;7.72;;;7.13;;
19842;SDS011;10082;51.038;6.992;2023-06-22T13:07:32;7.60;;;7.00;;
19842;SDS011;10082;51.038;6.992;2023-06-22T13:09:59;7.57;;;6.97;;
19842;SDS011;10082;51.038;6.992;2023-06-22T13:12:26;8.48;;;7.75;;
19842;SDS011;10082;51.038;6.992;2023-06-22T13:14:54;7.10;;;6.60;;
19842;SDS011;10082;51.038;6.992;2023-06-22T13:17:21;7.68;;;7.00;;
19842;SDS011;10082;51.038;6.992;2023-06-22T13:19:48;7.10;;;6.60;;
19842;SDS011;10082;51.038;6.992;2023-06-22T13:25:08;6.82;;;6.32;;
19842;SDS011;10082;51.038;6.992;2023-06-22T13:27:37;5.50;;;5.10;;
19842;SDS011;10082;51.038;6.992;2023-06-22T13:30:05;4.57;;;4.28;;
19842;SDS011;10082;51.038;6.992;2023-06-22T13:32:33;4.90;;;4.50;;
19842;SDS011;10082;51.038;6.992;2023-06-22T13:35:00;4.28;;;3.95;;
19842;SDS011;10082;51.038;6.992;2023-06-22T13:37:28;3.95;;;3.65;;
19842;SDS011;10082;51.038;6.992;2023-06-22T13:39:57;4.25;;;3.85;;
19842;SDS011;10082;51.038;6.992;2023-06-22T13:42:24;4.13;;;3.75;;
19842;SDS011;10082;51.038;6.992;2023-06-22T13:44:51;4.85;;;4.45;;
19842;SDS011;10082;51.038;6.992;2023-06-22T13:47:19;4.55;;;4.25;;
19842;SDS011;10082;51.038;6.992;2023-06-22T13:49:47;5.82;;;5.43;;
19842;SDS011;10082;51.038;6.992;2023-06-22T13:52:14;5.78;;;5.28;;
19842;SDS011;10082;51.038;6.992;2023-06-22T13:54:41;6.78;;;6.20;;
19842;SDS011;10082;51.038;6.992;2023-06-22T13:57:09;6.45;;;5.95;;
19842;SDS011;10082;51.038;6.992;2023-06-22T13:59:37;6.20;;;5.80;;
19842;SDS011;10082;51.038;6.992;2023-06-22T14:02:05;6.07;;;5.68;;
19842;SDS011;10082;51.038;6.992;2023-06-22T14:04:32;6.88;;;6.38;;
19842;SDS011;10082;51.038;6.992;2023-06-22T14:06:59;6.88;;;6.38;;
19842;SDS011;10082;51.038;6.992;2023-06-22T14:12:03;7.28;;;6.60;;
19842;SDS011;10082;51.038;6.992;2023-06-22T14:14:33;6.03;;;5.63;;
19842;SDS011;10082;51.038;6.992;2023-06-22T14:17:00;7.55;;;6.50;;
19842;SDS011;10082;51.038;6.992;2023-06-22T14:19:30;7.22;;;6.70;;
19842;SDS011;10082;51.038;6.992;2023-06-22T14:21:57;6.72;;;6.22;;
19842;SDS011;10082;51.038;6.992;2023-06-22T14:24:24;7.55;;;7.00;;
19842;SDS011;10082;51.038;6.992;2023-06-22T14:26:52;5.90;;;5.40;;
19842;SDS011;10082;51.038;6.992;2023-06-22T14:29:19;5.55;;;5.15;;
19842;SDS011;10082;51.038;6.992;2023-06-22T14:31:48;5.13;;;4.72;;
19842;SDS011;10082;51.038;6.992;2023-06-22T14:34:15;4.70;;;4.30;;
19842;SDS011;10082;51.038;6.992;2023-06-22T14:36:43;4.60;;;4.22;;
19842;SDS011;10082;51.038;6.992;2023-06-22T14:39:10;5.30;;;4.90;;
19842;SDS011;10082;51.038;6.992;2023-06-22T14:41:37;5.22;;;4.82;;
19842;SDS011;10082;51.038;6.992;2023-06-22T14:44:05;5.07;;;4.78;;
19842;SDS011;10082;51.038;6.992;2023-06-22T14:46:32;5.25;;;4.85;;
19842;SDS011;10082;51.038;6.992;2023-06-22T14:49:00;5.10;;;4.80;;
19842;SDS011;10082;51.038;6.992;2023-06-22T14:51:27;5.68;;;5.22;;
19842;SDS011;10082;51.038;6.992;2023-06-22T14:53:54;5.88;;;5.22;;
19842;SDS011;10082;51.038;6.992;2023-06-22T14:56:22;6.22;;;5.72;;
19842;SDS011;10082;51.038;6.992;2023-06-22T14:58:49;6.80;;;6.28;;
19842;SDS011;10082;51.038;6.992;2023-06-22T15:01:17;6.88;;;6.38;;
19842;SDS011;10082;51.038;6.992;2023-06-22T15:03:44;7.72;;;6.93;;
19842;SDS011;10082;51.038;6.992;2023-06-22T15:06:13;7.35;;;6.75;;
19842;SDS011;10082;51.038;6.992;2023-06-22T15:08:40;7.93;;;7.32;;
19842;SDS011;10082;51.038;6.992;2023-06-22T15:11:08;12.25;;;10.70;;
19842;SDS011;10082;51.038;6.992;2023-06-22T15:13:38;11.48;;;10.23;;
19842;SDS011;10082;51.038;6.992;2023-06-22T15:16:12;12.88;;;11.50;;
19842;SDS011;10082;51.038;6.992;2023-06-22T15:18:40;13.70;;;12.45;;
19842;SDS011;10082;51.038;6.992;2023-06-22T15:21:07;15.25;;;13.80;;
19842;SDS011;10082;51.038;6.992;2023-06-22T15:23:36;18.13;;;16.33;;
19842;SDS011;10082;51.038;6.992;2023-06-22T15:26:03;18.27;;;16.67;;
19842;SDS011;10082;51.038;6.992;2023-06-22T15:28:31;18.15;;;16.45;;
19842;SDS011;10082;51.038;6.992;2023-06-22T15:31:02;16.60;;;15.10;;
19842;SDS011;10082;51.038;6.992;2023-06-22T15:33:29;17.42;;;15.88;;
19842;SDS011;10082;51.038;6.992;2023-06-22T15:35:57;15.40;;;14.18;;
19842;SDS011;10082;51.038;6.992;2023-06-22T15:38:30;16.70;;;15.15;;
19842;SDS011;10082;51.038;6.992;2023-06-22T15:40:59;16.55;;;14.88;;
19842;SDS011;10082;51.038;6.992;2023-06-22T15:43:26;17.40;;;15.77;;
19842;SDS011;10082;51.038;6.992;2023-06-22T15:45:54;16.27;;;14.63;;
19842;SDS011;10082;51.038;6.992;2023-06-22T15:48:21;18.80;;;17.05;;
19842;SDS011;10082;51.038;6.992;2023-06-22T15:50:52;18.30;;;16.50;;
19842;SDS011;10082;51.038;6.992;2023-06-22T15:53:19;17.35;;;15.65;;
19842;SDS011;10082;51.038;6.992;2023-06-22T15:55:46;18.60;;;16.90;;
19842;SDS011;10082;51.038;6.992;2023-06-22T15:58:15;18.05;;;16.25;;
19842;SDS011;10082;51.038;6.992;2023-06-22T16:00:42;18.70;;;16.88;;
19842;SDS011;10082;51.038;6.992;2023-06-22T16:03:10;16.60;;;15.18;;
19842;SDS011;10082;51.038;6.992;2023-06-22T16:05:38;16.63;;;15.00;;
19842;SDS011;10082;51.038;6.992;2023-06-22T16:08:08;17.88;;;16.27;;
19842;SDS011;10082;51.038;6.992;2023-06-22T16:10:37;18.48;;;16.70;;
19842;SDS011;10082;51.038;6.992;2023-06-22T16:13:06;16.90;;;15.60;;
19842;SDS011;10082;51.038;6.992;2023-06-22T16:15:35;17.27;;;15.93;;
19842;SDS011;10082;51.038;6.992;2023-06-22T16:18:02;18.65;;;17.05;;
19842;SDS011;10082;51.038;6.992;2023-06-22T16:20:30;15.43;;;14.23;;
19842;SDS011;10082;51.038;6.992;2023-06-22T16:25:43;13.27;;;12.07;;
19842;SDS011;10082;51.038;6.992;2023-06-22T16:28:12;11.40;;;10.60;;